Slavutich-16 — ENYT — position and weather

sailwx.info

Track history (hours):
 
Tides and Currents Weather Stations Pressure Air Temp Water Temp Dewpoint Dewpoint Depression Visibility Wind Speed Wind Dir Waves Ship Positions

Slavutich-16

Last reported at 2016-Jul-18 16:32 UTC. Time now 2016-Sep-26 10:31 UTC.
Position N 46°47' E 037°17'.
Warning: this ship's position is months out of date.

Length 108 m; draft 3.2 m.

Type: Cargo ship. MMSI: 272046000.

Date/timePositionNaut miles runAvg speedWind from/ knotsBaromVisibWave heightAir tempDewpointWater temp
2016-Jul-18 16:32N 46°47' E 037°17'7 6.8
2016-Jul-18 15:33N 46°43' E 037°10'10 6.6
2016-Jul-18 14:06N 46°37' E 036°58'19 0.6
2016-Jul-17 06:28N 46°50' E 037°20'14 6.8
2016-Jul-17 04:25N 47°01' E 037°31'2 2.0
2016-Jul-17 03:33N 47°03' E 037°30'0 0.0
2016-Jul-17 02:33N 47°03' E 037°30'0 0.0
2016-Jul-17 01:33N 47°03' E 037°30'0 0.0
2016-Jul-17 00:32N 47°03' E 037°30'0 0.0
2016-Jul-16 23:29N 47°03' E 037°30'0 0.0
2016-Jul-16 22:23N 47°03' E 037°30'36 2.6
2016-Jul-16 08:17N 46°44' E 036°45'2 0.1
2016-Jul-14 23:20N 46°42' E 036°44'1 0.3
2016-Jul-14 21:33N 46°42' E 036°44'34 5.4
2016-Jul-14 15:19N 46°56' E 037°28'11 0.7
2016-Jul-14 00:11N 47°06' E 037°35'27 2.2
2016-Jul-13 12:21N 46°44' E 037°12'5 6.6
2016-Jul-13 11:34N 46°41' E 037°06'7 6.8
2016-Jul-13 10:31N 46°38' E 036°57'6 6.3
2016-Jul-13 09:31N 46°36' E 036°48'9 1.7
2016-Jul-13 04:05N 46°45' E 036°47'0 0.0
2016-Jul-13 03:23N 46°45' E 036°47'0 0.0
2016-Jul-12 22:05N 46°45' E 036°47'  
Track history (hours):
 
Tides and Currents Weather Stations Pressure Air Temp Water Temp Dewpoint Dewpoint Depression Visibility Wind Speed Wind Dir Waves Ship Positions

Slavutich-16

Last reported at 2016-Jul-18 16:32 UTC. Time now 2016-Sep-26 10:31 UTC.
Position N 46°47' E 037°17'.
Warning: this ship's position is months out of date.

Length 108 m; draft 3.2 m.

Type: Cargo ship. MMSI: 272046000.

Date/timePositionNaut miles runAvg speedWind from/ knotsBaromVisibWave heightAir tempDewpointWater temp
2016-Jul-18 16:32N 46°47' E 037°17'7 6.8
2016-Jul-18 15:33N 46°43' E 037°10'10 6.6
2016-Jul-18 14:06N 46°37' E 036°58'19 0.6
2016-Jul-17 06:28N 46°50' E 037°20'14 6.8
2016-Jul-17 04:25N 47°01' E 037°31'2 2.0
2016-Jul-17 03:33N 47°03' E 037°30'0 0.0
2016-Jul-17 02:33N 47°03' E 037°30'0 0.0
2016-Jul-17 01:33N 47°03' E 037°30'0 0.0
2016-Jul-17 00:32N 47°03' E 037°30'0 0.0
2016-Jul-16 23:29N 47°03' E 037°30'0 0.0
2016-Jul-16 22:23N 47°03' E 037°30'36 2.6
2016-Jul-16 08:17N 46°44' E 036°45'2 0.1
2016-Jul-14 23:20N 46°42' E 036°44'1 0.3
2016-Jul-14 21:33N 46°42' E 036°44'34 5.4
2016-Jul-14 15:19N 46°56' E 037°28'11 0.7
2016-Jul-14 00:11N 47°06' E 037°35'27 2.2
2016-Jul-13 12:21N 46°44' E 037°12'5 6.6
2016-Jul-13 11:34N 46°41' E 037°06'7 6.8
2016-Jul-13 10:31N 46°38' E 036°57'6 6.3
2016-Jul-13 09:31N 46°36' E 036°48'9 1.7
2016-Jul-13 04:05N 46°45' E 036°47'0 0.0
2016-Jul-13 03:23N 46°45' E 036°47'0 0.0
2016-Jul-12 22:05N 46°45' E 036°47'  

Dump ship's entire track history